createdAt,value
2023-03-04T00:04:48.169Z,4.18
2023-03-04T00:09:49.542Z,4.15
2023-03-04T00:14:51.361Z,4.04
2023-03-04T00:19:52.700Z,4.07
2023-03-04T00:24:54.065Z,4.06
2023-03-04T00:29:56.114Z,4.02
2023-03-04T00:34:57.481Z,4.01
2023-03-04T00:39:59.474Z,4.10
2023-03-04T00:45:00.818Z,4.03
2023-03-04T00:50:02.322Z,4.01
2023-03-04T00:55:04.610Z,3.96
2023-03-04T01:00:06.627Z,3.98
2023-03-04T01:05:08.734Z,4.01
2023-03-04T01:10:12.606Z,4.07
2023-03-04T01:15:14.422Z,4.12
2023-03-04T01:20:15.943Z,4.21
2023-03-04T01:25:17.381Z,4.27
2023-03-04T01:30:18.699Z,4.29
2023-03-04T01:35:20.033Z,4.22
2023-03-04T01:40:22.004Z,4.24
2023-03-04T01:45:23.944Z,4.30
2023-03-04T01:50:35.080Z,4.39
2023-03-04T01:55:36.937Z,4.45
2023-03-04T02:00:38.977Z,4.45
2023-03-04T02:05:46.321Z,4.17
2023-03-04T02:10:48.422Z,4.21
2023-03-04T02:15:49.835Z,4.21
2023-03-04T02:21:13.360Z,4.32
2023-03-04T02:26:20.104Z,4.32
2023-03-04T02:31:30.259Z,4.27
2023-03-04T02:36:33.371Z,4.35
2023-03-04T02:41:35.649Z,4.37
2023-03-04T02:46:37.076Z,4.33
2023-03-04T02:51:38.504Z,4.30
2023-03-04T02:56:45.352Z,4.31
2023-03-04T03:01:47.027Z,4.30
2023-03-04T03:06:48.873Z,4.27
2023-03-04T03:11:50.239Z,4.27
2023-03-04T03:16:51.570Z,4.24
2023-03-04T03:21:52.968Z,4.22
2023-03-04T03:26:54.292Z,4.16
2023-03-04T03:31:56.919Z,4.15
2023-03-04T03:36:58.475Z,4.40
2023-03-04T03:41:59.918Z,4.22
2023-03-04T03:47:01.423Z,4.63
2023-03-04T03:52:03.227Z,4.57
2023-03-04T03:57:04.564Z,4.71
2023-03-04T04:02:06.223Z,4.78
2023-03-04T04:07:07.645Z,4.58
2023-03-04T04:12:09.136Z,4.56
2023-03-04T04:17:11.651Z,4.78
2023-03-04T04:22:16.232Z,4.60
2023-03-04T04:27:17.570Z,4.78
2023-03-04T04:32:18.916Z,4.68
2023-03-04T04:37:20.772Z,4.78
2023-03-04T04:42:22.460Z,4.72
2023-03-04T04:47:23.906Z,4.66
2023-03-04T04:52:25.246Z,4.90
2023-03-04T04:57:26.637Z,4.82
2023-03-04T05:02:28.033Z,4.79
2023-03-04T05:07:29.396Z,4.98
2023-03-04T05:12:30.773Z,4.75
2023-03-04T05:17:32.124Z,5.02
2023-03-04T05:22:34.021Z,4.91
2023-03-04T05:27:37.683Z,5.15
2023-03-04T05:32:39.449Z,5.16
2023-03-04T05:37:40.818Z,4.96
2023-03-04T05:42:42.183Z,5.24
2023-03-04T05:47:43.679Z,5.19
2023-03-04T05:52:45.085Z,5.09
2023-03-04T05:57:46.797Z,5.10
2023-03-04T06:02:48.393Z,5.27
2023-03-04T06:07:52.175Z,5.26
2023-03-04T06:12:53.751Z,5.15
2023-03-04T06:17:55.101Z,5.30
2023-03-04T06:22:56.584Z,5.23
2023-03-04T06:27:57.961Z,5.38
2023-03-04T06:32:59.266Z,5.18
2023-03-04T06:38:00.641Z,5.33
2023-03-04T06:43:02.064Z,5.26
2023-03-04T06:48:03.590Z,5.19
2023-03-04T06:53:05.319Z,5.19
2023-03-04T06:58:06.743Z,5.01
2023-03-04T07:03:11.644Z,5.21
2023-03-04T07:08:13.291Z,5.41
2023-03-04T07:13:15.008Z,5.35
2023-03-04T07:18:16.316Z,5.31
2023-03-04T07:23:17.735Z,5.53
2023-03-04T07:28:19.360Z,5.57
2023-03-04T07:33:20.812Z,5.50
2023-03-04T07:38:22.204Z,5.42
2023-03-04T07:43:23.640Z,5.54
2023-03-04T07:48:25.130Z,5.75
2023-03-04T07:53:26.485Z,5.53
2023-03-04T07:58:27.822Z,5.69
2023-03-04T08:03:29.744Z,5.68
2023-03-04T08:08:31.773Z,5.75
2023-03-04T08:13:33.251Z,5.87
2023-03-04T08:18:34.816Z,5.98
2023-03-04T08:23:36.254Z,6.11
2023-03-04T08:28:38.340Z,6.16
2023-03-04T08:33:39.769Z,6.19
2023-03-04T08:38:41.503Z,6.22
2023-03-04T08:43:43.874Z,6.22
2023-03-04T08:48:45.616Z,5.99
2023-03-04T08:53:47.187Z,6.06
2023-03-04T08:58:48.563Z,6.24
2023-03-04T09:03:50.088Z,6.34
2023-03-04T09:08:51.525Z,6.33
2023-03-04T09:13:53.685Z,6.46
2023-03-04T09:18:55.216Z,6.41
2023-03-04T09:23:56.694Z,6.30
2023-03-04T09:29:00.750Z,6.54
2023-03-04T09:34:02.187Z,6.50
2023-03-04T09:39:04.887Z,6.60
2023-03-04T09:44:24.257Z,6.81
2023-03-04T09:49:26.515Z,6.81
2023-03-04T09:54:46.716Z,6.94
2023-03-04T10:00:13.088Z,6.79
2023-03-04T10:05:19.985Z,6.97
2023-03-04T10:10:33.848Z,6.62
2023-03-04T10:15:42.374Z,7.01
2023-03-04T10:20:56.809Z,7.11
2023-03-04T10:26:00.220Z,7.10
2023-03-04T10:31:27.239Z,7.23
2023-03-04T10:36:31.411Z,7.20
2023-03-04T10:41:33.242Z,7.24
2023-03-04T10:46:48.383Z,6.99
2023-03-04T10:52:03.855Z,7.02
2023-03-04T10:57:14.780Z,6.98
2023-03-04T11:02:29.160Z,7.29
2023-03-04T11:07:34.096Z,7.39
2023-03-04T11:12:39.870Z,7.31
2023-03-04T11:17:46.989Z,7.22
2023-03-04T11:22:48.681Z,7.27
2023-03-04T11:27:55.810Z,7.38
2023-03-04T11:33:09.989Z,7.57
2023-03-04T11:38:24.648Z,7.05
2023-03-04T11:43:26.046Z,7.13
2023-03-04T11:48:45.404Z,7.07
2023-03-04T11:53:59.723Z,6.64
2023-03-04T11:59:15.371Z,6.72
2023-03-04T12:04:54.549Z,6.98
2023-03-04T12:10:22.509Z,7.25
2023-03-04T12:15:32.763Z,7.49
2023-03-04T12:20:46.281Z,7.67
2023-03-04T12:26:17.049Z,7.17
2023-03-04T12:31:35.841Z,7.56
2023-03-04T12:36:49.624Z,7.85
2023-03-04T12:41:57.214Z,8.13
2023-03-04T12:47:26.344Z,8.40
2023-03-04T12:53:03.776Z,8.52
2023-03-04T12:58:13.892Z,8.87
2023-03-04T13:03:26.597Z,8.92
2023-03-04T13:08:33.997Z,8.88
2023-03-04T13:13:37.175Z,8.87
2023-03-04T13:18:39.471Z,8.78
2023-03-04T13:23:41.009Z,8.38
2023-03-04T13:28:43.028Z,8.57
2023-03-04T13:33:48.657Z,8.63
2023-03-04T13:39:20.871Z,8.66
2023-03-04T13:44:34.411Z,8.70
2023-03-04T13:49:35.759Z,8.60
2023-03-04T13:54:37.466Z,8.52
2023-03-04T13:59:45.205Z,8.73
2023-03-04T14:04:57.401Z,8.56
2023-03-04T14:10:15.482Z,8.64
2023-03-04T14:15:21.634Z,8.45
2023-03-04T14:20:33.920Z,8.40
2023-03-04T14:25:36.980Z,8.49
2023-03-04T14:30:43.123Z,8.59
2023-03-04T14:35:48.128Z,8.47
2023-03-04T14:41:05.959Z,8.46
2023-03-04T14:46:13.067Z,8.53
2023-03-04T14:51:36.948Z,8.46
2023-03-04T14:56:43.888Z,8.48
2023-03-04T15:01:46.092Z,8.58
2023-03-04T15:06:50.250Z,8.64
2023-03-04T15:12:01.975Z,8.56
2023-03-04T15:17:03.478Z,8.47
2023-03-04T15:22:06.823Z,8.32
2023-03-04T15:27:12.315Z,8.46
2023-03-04T15:32:13.696Z,8.38
2023-03-04T15:37:27.298Z,8.32
2023-03-04T15:42:28.939Z,8.36
2023-03-04T15:47:30.389Z,8.22
2023-03-04T15:52:33.502Z,8.26
2023-03-04T15:57:34.935Z,8.36
2023-03-04T16:02:36.297Z,8.24
2023-03-04T16:07:40.431Z,8.30
2023-03-04T16:12:42.132Z,8.25
2023-03-04T16:17:44.026Z,8.36
2023-03-04T16:22:47.056Z,8.26
2023-03-04T16:27:52.304Z,8.44
2023-03-04T16:32:54.368Z,8.21
2023-03-04T16:37:56.821Z,8.18
2023-03-04T16:42:58.173Z,8.30
2023-03-04T16:47:59.576Z,8.28
2023-03-04T16:53:01.008Z,8.14
2023-03-04T16:58:02.373Z,8.05
2023-03-04T17:03:04.213Z,8.05
2023-03-04T17:08:05.786Z,8.08
2023-03-04T17:13:09.067Z,7.98
2023-03-04T17:18:10.507Z,7.88
2023-03-04T17:23:11.914Z,7.89
2023-03-04T17:28:13.355Z,7.96
2023-03-04T17:33:14.710Z,7.92
2023-03-04T17:38:16.538Z,7.90
2023-03-04T17:43:17.866Z,7.97
2023-03-04T17:48:19.322Z,7.82
2023-03-04T17:53:20.788Z,8.01
2023-03-04T17:58:23.199Z,7.83
2023-03-04T18:03:24.542Z,7.86
2023-03-04T18:08:26.015Z,7.97
2023-03-04T18:13:27.388Z,7.88
2023-03-04T18:18:28.947Z,7.76
2023-03-04T18:23:30.878Z,7.70
2023-03-04T18:28:32.418Z,7.66
2023-03-04T18:33:34.446Z,7.78
2023-03-04T18:38:35.797Z,7.64
2023-03-04T18:43:37.195Z,7.70
2023-03-04T18:48:45.016Z,7.64
2023-03-04T18:53:46.509Z,7.68
2023-03-04T18:58:50.472Z,7.68
2023-03-04T19:03:54.248Z,7.81
2023-03-04T19:08:55.727Z,7.74
2023-03-04T19:13:57.338Z,7.89
2023-03-04T19:18:58.706Z,7.76
2023-03-04T19:24:00.095Z,7.85
2023-03-04T19:29:01.812Z,7.92
2023-03-04T19:34:04.850Z,7.84
2023-03-04T19:39:08.113Z,7.93
2023-03-04T19:44:09.469Z,7.93
2023-03-04T19:49:11.352Z,7.93
2023-03-04T19:54:12.695Z,7.84
2023-03-04T19:59:14.163Z,7.88
2023-03-04T20:04:18.410Z,7.84
2023-03-04T20:09:19.912Z,7.84
2023-03-04T20:14:21.322Z,7.74
2023-03-04T20:19:22.694Z,7.88
2023-03-04T20:24:25.164Z,7.53
2023-03-04T20:29:28.521Z,7.74
2023-03-04T20:34:29.835Z,7.68
2023-03-04T20:39:31.279Z,7.61
2023-03-04T20:44:33.140Z,7.67
2023-03-04T20:49:34.754Z,7.59
2023-03-04T20:54:38.461Z,7.69
2023-03-04T20:59:40.984Z,7.73
2023-03-04T21:04:43.850Z,7.55
2023-03-04T21:09:45.385Z,7.77
2023-03-04T21:14:46.983Z,7.76
2023-03-04T21:19:48.299Z,7.84
2023-03-04T21:24:49.746Z,7.83
2023-03-04T21:29:52.522Z,7.74
2023-03-04T21:34:54.889Z,7.69
2023-03-04T21:39:56.324Z,7.83
2023-03-04T21:44:57.759Z,7.84
2023-03-04T21:49:59.046Z,7.84
2023-03-04T21:55:00.566Z,7.81
2023-03-04T22:00:02.456Z,7.74
2023-03-04T22:05:05.009Z,7.85
2023-03-04T22:10:06.999Z,7.54
2023-03-04T22:15:10.172Z,7.71
2023-03-04T22:20:12.431Z,7.67
2023-03-04T22:25:13.846Z,7.29
2023-03-04T22:30:17.314Z,7.59
2023-03-04T22:35:19.303Z,7.65
2023-03-04T22:40:20.842Z,7.63
2023-03-04T22:45:22.250Z,7.71
2023-03-04T22:50:23.663Z,7.64
2023-03-04T22:55:25.003Z,7.53
2023-03-04T23:00:28.477Z,7.72
2023-03-04T23:05:29.864Z,7.74
2023-03-04T23:10:31.228Z,7.77
2023-03-04T23:15:32.521Z,7.67
2023-03-04T23:20:33.907Z,7.59
2023-03-04T23:25:35.926Z,7.64
2023-03-04T23:30:37.793Z,7.73
2023-03-04T23:35:40.145Z,7.78
2023-03-04T23:40:41.512Z,7.69
2023-03-04T23:45:43.583Z,7.53
2023-03-04T23:50:51.476Z,7.58
2023-03-04T23:55:52.921Z,7.71
